sensor_id;sensor_type;location;lat;lon;timestamp;temperature;humidity
54202;DHT22;40108;53.152;5.844;2023-03-04T00:02:23;5.90;81.80
54202;DHT22;40108;53.152;5.844;2023-03-04T00:04:49;5.80;81.80
54202;DHT22;40108;53.152;5.844;2023-03-04T00:07:15;5.80;81.80
54202;DHT22;40108;53.152;5.844;2023-03-04T00:09:44;5.80;81.90
54202;DHT22;40108;53.152;5.844;2023-03-04T00:12:10;5.80;81.80
54202;DHT22;40108;53.152;5.844;2023-03-04T00:14:36;5.80;81.80
54202;DHT22;40108;53.152;5.844;2023-03-04T00:17:02;5.80;81.80
54202;DHT22;40108;53.152;5.844;2023-03-04T00:19:29;5.80;81.70
54202;DHT22;40108;53.152;5.844;2023-03-04T00:21:55;5.80;81.70
54202;DHT22;40108;53.152;5.844;2023-03-04T00:24:21;5.80;81.80
54202;DHT22;40108;53.152;5.844;2023-03-04T00:26:46;5.80;81.80
54202;DHT22;40108;53.152;5.844;2023-03-04T00:29:12;5.80;81.80
54202;DHT22;40108;53.152;5.844;2023-03-04T00:31:38;5.90;81.70
54202;DHT22;40108;53.152;5.844;2023-03-04T00:34:03;5.80;81.90
54202;DHT22;40108;53.152;5.844;2023-03-04T00:36:29;5.80;82.00
54202;DHT22;40108;53.152;5.844;2023-03-04T00:38:55;5.80;82.10
54202;DHT22;40108;53.152;5.844;2023-03-04T00:41:21;5.80;82.10
54202;DHT22;40108;53.152;5.844;2023-03-04T00:43:46;5.80;82.30
54202;DHT22;40108;53.152;5.844;2023-03-04T00:46:12;5.80;82.30
54202;DHT22;40108;53.152;5.844;2023-03-04T00:48:38;5.80;82.40
54202;DHT22;40108;53.152;5.844;2023-03-04T00:51:04;5.80;82.10
54202;DHT22;40108;53.152;5.844;2023-03-04T00:53:30;5.80;81.40
54202;DHT22;40108;53.152;5.844;2023-03-04T00:55:55;5.80;80.80
54202;DHT22;40108;53.152;5.844;2023-03-04T00:58:21;5.80;80.80
54202;DHT22;40108;53.152;5.844;2023-03-04T01:00:47;5.80;80.50
54202;DHT22;40108;53.152;5.844;2023-03-04T01:03:12;5.80;80.40
54202;DHT22;40108;53.152;5.844;2023-03-04T01:05:38;5.80;80.20
54202;DHT22;40108;53.152;5.844;2023-03-04T01:08:04;5.80;80.10
54202;DHT22;40108;53.152;5.844;2023-03-04T01:10:30;5.70;80.20
54202;DHT22;40108;53.152;5.844;2023-03-04T01:12:56;5.80;80.60
54202;DHT22;40108;53.152;5.844;2023-03-04T01:15:22;5.70;80.90
54202;DHT22;40108;53.152;5.844;2023-03-04T01:17:48;5.70;81.20
54202;DHT22;40108;53.152;5.844;2023-03-04T01:20:13;5.70;81.40
54202;DHT22;40108;53.152;5.844;2023-03-04T01:22:39;5.70;81.60
54202;DHT22;40108;53.152;5.844;2023-03-04T01:25:06;5.70;81.70
54202;DHT22;40108;53.152;5.844;2023-03-04T01:27:31;5.70;81.70
54202;DHT22;40108;53.152;5.844;2023-03-04T01:29:57;5.80;81.80
54202;DHT22;40108;53.152;5.844;2023-03-04T01:32:23;5.70;81.90
54202;DHT22;40108;53.152;5.844;2023-03-04T01:34:48;5.70;82.00
54202;DHT22;40108;53.152;5.844;2023-03-04T01:37:14;5.70;82.10
54202;DHT22;40108;53.152;5.844;2023-03-04T01:39:40;5.70;82.00
54202;DHT22;40108;53.152;5.844;2023-03-04T01:42:20;5.70;82.10
54202;DHT22;40108;53.152;5.844;2023-03-04T01:44:47;5.70;81.90
54202;DHT22;40108;53.152;5.844;2023-03-04T01:47:14;5.70;81.80
54202;DHT22;40108;53.152;5.844;2023-03-04T01:49:40;5.70;81.70
54202;DHT22;40108;53.152;5.844;2023-03-04T01:52:10;5.70;81.50
54202;DHT22;40108;53.152;5.844;2023-03-04T01:54:36;5.70;81.40
54202;DHT22;40108;53.152;5.844;2023-03-04T01:57:14;5.70;81.30
54202;DHT22;40108;53.152;5.844;2023-03-04T01:59:40;5.70;81.20
54202;DHT22;40108;53.152;5.844;2023-03-04T02:02:06;5.70;81.10
54202;DHT22;40108;53.152;5.844;2023-03-04T02:04:32;5.70;81.30
54202;DHT22;40108;53.152;5.844;2023-03-04T02:06:59;5.70;81.60
54202;DHT22;40108;53.152;5.844;2023-03-04T02:09:25;5.70;81.80
54202;DHT22;40108;53.152;5.844;2023-03-04T02:11:52;5.70;81.80
54202;DHT22;40108;53.152;5.844;2023-03-04T02:14:18;5.70;82.10
54202;DHT22;40108;53.152;5.844;2023-03-04T02:16:45;5.70;82.20
54202;DHT22;40108;53.152;5.844;2023-03-04T02:19:39;5.70;82.30
54202;DHT22;40108;53.152;5.844;2023-03-04T02:22:06;5.80;82.60
54202;DHT22;40108;53.152;5.844;2023-03-04T02:24:40;5.70;82.80
54202;DHT22;40108;53.152;5.844;2023-03-04T02:27:07;5.80;83.00
54202;DHT22;40108;53.152;5.844;2023-03-04T02:29:34;5.70;83.10
54202;DHT22;40108;53.152;5.844;2023-03-04T02:31:59;5.70;83.30
54202;DHT22;40108;53.152;5.844;2023-03-04T02:34:46;5.70;83.30
54202;DHT22;40108;53.152;5.844;2023-03-04T02:37:14;5.70;83.40
54202;DHT22;40108;53.152;5.844;2023-03-04T02:39:44;5.70;83.60
54202;DHT22;40108;53.152;5.844;2023-03-04T02:42:11;5.70;83.80
54202;DHT22;40108;53.152;5.844;2023-03-04T02:44:39;5.70;83.90
54202;DHT22;40108;53.152;5.844;2023-03-04T02:47:09;5.70;83.90
54202;DHT22;40108;53.152;5.844;2023-03-04T02:49:37;5.70;83.90
54202;DHT22;40108;53.152;5.844;2023-03-04T02:52:06;5.70;83.90
54202;DHT22;40108;53.152;5.844;2023-03-04T02:54:33;5.60;83.80
54202;DHT22;40108;53.152;5.844;2023-03-04T02:57:02;5.60;83.60
54202;DHT22;40108;53.152;5.844;2023-03-04T02:59:29;5.70;83.40
54202;DHT22;40108;53.152;5.844;2023-03-04T03:01:55;5.60;83.50
54202;DHT22;40108;53.152;5.844;2023-03-04T03:04:22;5.70;83.50
54202;DHT22;40108;53.152;5.844;2023-03-04T03:06:48;5.70;83.40
54202;DHT22;40108;53.152;5.844;2023-03-04T03:09:14;5.70;83.30
54202;DHT22;40108;53.152;5.844;2023-03-04T03:11:40;5.70;83.40
54202;DHT22;40108;53.152;5.844;2023-03-04T03:14:05;5.70;83.50
54202;DHT22;40108;53.152;5.844;2023-03-04T03:16:31;5.70;83.70
54202;DHT22;40108;53.152;5.844;2023-03-04T03:18:57;5.70;83.80
54202;DHT22;40108;53.152;5.844;2023-03-04T03:21:23;5.70;83.90
54202;DHT22;40108;53.152;5.844;2023-03-04T03:23:48;5.80;83.90
54202;DHT22;40108;53.152;5.844;2023-03-04T03:26:15;5.70;84.10
54202;DHT22;40108;53.152;5.844;2023-03-04T03:28:41;5.70;84.10
54202;DHT22;40108;53.152;5.844;2023-03-04T03:31:06;5.80;84.30
54202;DHT22;40108;53.152;5.844;2023-03-04T03:33:32;5.80;84.40
54202;DHT22;40108;53.152;5.844;2023-03-04T03:35:58;5.80;84.60
54202;DHT22;40108;53.152;5.844;2023-03-04T03:38:24;5.80;84.60
54202;DHT22;40108;53.152;5.844;2023-03-04T03:40:50;5.80;84.80
54202;DHT22;40108;53.152;5.844;2023-03-04T03:43:16;5.70;84.90
54202;DHT22;40108;53.152;5.844;2023-03-04T03:45:42;5.70;85.10
54202;DHT22;40108;53.152;5.844;2023-03-04T03:48:07;5.80;85.20
54202;DHT22;40108;53.152;5.844;2023-03-04T03:50:33;5.80;85.20
54202;DHT22;40108;53.152;5.844;2023-03-04T03:52:59;5.80;85.30
54202;DHT22;40108;53.152;5.844;2023-03-04T03:55:25;5.80;85.30
54202;DHT22;40108;53.152;5.844;2023-03-04T03:57:51;5.80;85.30
54202;DHT22;40108;53.152;5.844;2023-03-04T04:00:17;5.80;85.30
54202;DHT22;40108;53.152;5.844;2023-03-04T04:02:43;5.80;85.20
54202;DHT22;40108;53.152;5.844;2023-03-04T04:05:09;5.80;85.40
54202;DHT22;40108;53.152;5.844;2023-03-04T04:07:35;5.80;85.50
54202;DHT22;40108;53.152;5.844;2023-03-04T04:10:02;5.80;85.40
54202;DHT22;40108;53.152;5.844;2023-03-04T04:12:27;5.80;85.50
54202;DHT22;40108;53.152;5.844;2023-03-04T04:14:53;5.80;85.50
54202;DHT22;40108;53.152;5.844;2023-03-04T04:17:19;5.80;85.50
54202;DHT22;40108;53.152;5.844;2023-03-04T04:19:45;5.80;85.60
54202;DHT22;40108;53.152;5.844;2023-03-04T04:22:14;5.80;85.70
54202;DHT22;40108;53.152;5.844;2023-03-04T04:24:40;5.80;85.80
54202;DHT22;40108;53.152;5.844;2023-03-04T04:27:06;5.80;85.90
54202;DHT22;40108;53.152;5.844;2023-03-04T04:29:32;5.80;86.10
54202;DHT22;40108;53.152;5.844;2023-03-04T04:31:58;5.90;86.10
54202;DHT22;40108;53.152;5.844;2023-03-04T04:34:24;5.90;86.20
54202;DHT22;40108;53.152;5.844;2023-03-04T04:36:50;5.80;86.10
54202;DHT22;40108;53.152;5.844;2023-03-04T04:39:16;5.80;86.20
54202;DHT22;40108;53.152;5.844;2023-03-04T04:41:43;5.80;86.20
54202;DHT22;40108;53.152;5.844;2023-03-04T04:44:09;5.80;86.40
54202;DHT22;40108;53.152;5.844;2023-03-04T04:46:35;5.80;86.50
54202;DHT22;40108;53.152;5.844;2023-03-04T04:49:02;5.80;86.50
54202;DHT22;40108;53.152;5.844;2023-03-04T04:51:28;5.80;86.60
54202;DHT22;40108;53.152;5.844;2023-03-04T04:53:54;5.80;86.70
54202;DHT22;40108;53.152;5.844;2023-03-04T04:56:22;5.90;86.90
54202;DHT22;40108;53.152;5.844;2023-03-04T04:58:55;5.90;87.00
54202;DHT22;40108;53.152;5.844;2023-03-04T05:01:21;5.90;87.10
54202;DHT22;40108;53.152;5.844;2023-03-04T05:03:47;5.90;87.50
54202;DHT22;40108;53.152;5.844;2023-03-04T05:06:15;5.90;88.10
54202;DHT22;40108;53.152;5.844;2023-03-04T05:08:41;5.80;88.90
54202;DHT22;40108;53.152;5.844;2023-03-04T05:11:07;5.80;89.70
54202;DHT22;40108;53.152;5.844;2023-03-04T05:13:34;5.70;89.80
54202;DHT22;40108;53.152;5.844;2023-03-04T05:16:00;5.70;89.90
54202;DHT22;40108;53.152;5.844;2023-03-04T05:18:26;5.70;90.00
54202;DHT22;40108;53.152;5.844;2023-03-04T05:20:55;5.60;90.00
54202;DHT22;40108;53.152;5.844;2023-03-04T05:23:21;5.60;90.30
54202;DHT22;40108;53.152;5.844;2023-03-04T05:25:47;5.50;90.50
54202;DHT22;40108;53.152;5.844;2023-03-04T05:28:14;5.50;90.60
54202;DHT22;40108;53.152;5.844;2023-03-04T05:30:41;5.50;90.80
54202;DHT22;40108;53.152;5.844;2023-03-04T05:33:08;5.50;90.90
54202;DHT22;40108;53.152;5.844;2023-03-04T05:35:35;5.60;91.10
54202;DHT22;40108;53.152;5.844;2023-03-04T05:38:06;5.60;91.00
54202;DHT22;40108;53.152;5.844;2023-03-04T05:40:33;5.50;91.20
54202;DHT22;40108;53.152;5.844;2023-03-04T05:42:59;5.60;91.10
54202;DHT22;40108;53.152;5.844;2023-03-04T05:45:25;5.60;91.50
54202;DHT22;40108;53.152;5.844;2023-03-04T05:47:52;5.60;91.80
54202;DHT22;40108;53.152;5.844;2023-03-04T05:50:19;5.60;92.00
54202;DHT22;40108;53.152;5.844;2023-03-04T05:52:44;5.60;92.10
54202;DHT22;40108;53.152;5.844;2023-03-04T05:55:10;5.60;92.20
54202;DHT22;40108;53.152;5.844;2023-03-04T05:57:36;5.60;92.20
54202;DHT22;40108;53.152;5.844;2023-03-04T06:00:04;5.60;92.10
54202;DHT22;40108;53.152;5.844;2023-03-04T06:02:30;5.60;92.00
54202;DHT22;40108;53.152;5.844;2023-03-04T06:04:56;5.60;91.90
54202;DHT22;40108;53.152;5.844;2023-03-04T06:07:22;5.60;91.90
54202;DHT22;40108;53.152;5.844;2023-03-04T06:09:47;5.60;92.10
54202;DHT22;40108;53.152;5.844;2023-03-04T06:12:13;5.60;92.20
54202;DHT22;40108;53.152;5.844;2023-03-04T06:14:39;5.70;92.10
54202;DHT22;40108;53.152;5.844;2023-03-04T06:17:05;5.70;92.10
54202;DHT22;40108;53.152;5.844;2023-03-04T06:19:30;5.70;92.30
54202;DHT22;40108;53.152;5.844;2023-03-04T06:21:56;5.70;92.60
54202;DHT22;40108;53.152;5.844;2023-03-04T06:24:22;5.70;92.70
54202;DHT22;40108;53.152;5.844;2023-03-04T06:26:47;5.70;92.90
54202;DHT22;40108;53.152;5.844;2023-03-04T06:29:14;5.70;93.10
54202;DHT22;40108;53.152;5.844;2023-03-04T06:31:39;5.70;93.30
54202;DHT22;40108;53.152;5.844;2023-03-04T06:34:09;5.70;93.50
54202;DHT22;40108;53.152;5.844;2023-03-04T06:36:35;5.70;93.70
54202;DHT22;40108;53.152;5.844;2023-03-04T06:39:05;5.70;93.80
54202;DHT22;40108;53.152;5.844;2023-03-04T06:41:31;5.70;93.90
54202;DHT22;40108;53.152;5.844;2023-03-04T06:43:57;5.60;93.90
54202;DHT22;40108;53.152;5.844;2023-03-04T06:46:23;5.60;93.90
54202;DHT22;40108;53.152;5.844;2023-03-04T06:48:48;5.60;93.70
54202;DHT22;40108;53.152;5.844;2023-03-04T06:51:15;5.60;93.70
54202;DHT22;40108;53.152;5.844;2023-03-04T06:53:41;5.50;93.70
54202;DHT22;40108;53.152;5.844;2023-03-04T06:56:08;5.50;93.70
54202;DHT22;40108;53.152;5.844;2023-03-04T06:58:35;5.60;93.60
54202;DHT22;40108;53.152;5.844;2023-03-04T07:01:10;5.50;93.70
54202;DHT22;40108;53.152;5.844;2023-03-04T07:03:36;5.50;93.80
54202;DHT22;40108;53.152;5.844;2023-03-04T07:06:02;5.60;93.80
54202;DHT22;40108;53.152;5.844;2023-03-04T07:08:28;5.60;93.70
54202;DHT22;40108;53.152;5.844;2023-03-04T07:10:54;5.70;93.90
54202;DHT22;40108;53.152;5.844;2023-03-04T07:13:19;5.70;93.80
54202;DHT22;40108;53.152;5.844;2023-03-04T07:15:45;5.70;93.80
54202;DHT22;40108;53.152;5.844;2023-03-04T07:18:11;5.70;93.90
54202;DHT22;40108;53.152;5.844;2023-03-04T07:20:37;5.70;93.80
54202;DHT22;40108;53.152;5.844;2023-03-04T07:23:03;5.80;93.90
54202;DHT22;40108;53.152;5.844;2023-03-04T07:25:28;5.80;93.90
54202;DHT22;40108;53.152;5.844;2023-03-04T07:27:54;5.90;94.10
54202;DHT22;40108;53.152;5.844;2023-03-04T07:30:20;5.90;94.30
54202;DHT22;40108;53.152;5.844;2023-03-04T07:32:45;5.90;94.50
54202;DHT22;40108;53.152;5.844;2023-03-04T07:35:11;5.90;94.50
54202;DHT22;40108;53.152;5.844;2023-03-04T07:37:37;5.90;94.60
54202;DHT22;40108;53.152;5.844;2023-03-04T07:40:05;5.90;94.70
54202;DHT22;40108;53.152;5.844;2023-03-04T07:42:32;5.90;94.70
54202;DHT22;40108;53.152;5.844;2023-03-04T07:44:58;6.00;94.70
54202;DHT22;40108;53.152;5.844;2023-03-04T07:47:26;6.00;94.80
54202;DHT22;40108;53.152;5.844;2023-03-04T07:49:52;6.00;94.90
54202;DHT22;40108;53.152;5.844;2023-03-04T07:52:18;6.00;94.70
54202;DHT22;40108;53.152;5.844;2023-03-04T07:54:44;5.90;94.70
54202;DHT22;40108;53.152;5.844;2023-03-04T07:57:09;5.90;94.70
54202;DHT22;40108;53.152;5.844;2023-03-04T07:59:35;5.90;94.50
54202;DHT22;40108;53.152;5.844;2023-03-04T08:02:01;5.90;94.40
54202;DHT22;40108;53.152;5.844;2023-03-04T08:04:27;6.00;94.30
54202;DHT22;40108;53.152;5.844;2023-03-04T08:06:52;6.00;93.70
54202;DHT22;40108;53.152;5.844;2023-03-04T08:09:18;6.00;93.50
54202;DHT22;40108;53.152;5.844;2023-03-04T08:11:44;6.00;93.00
54202;DHT22;40108;53.152;5.844;2023-03-04T08:14:11;6.10;92.80
54202;DHT22;40108;53.152;5.844;2023-03-04T08:16:37;6.20;92.40
54202;DHT22;40108;53.152;5.844;2023-03-04T08:19:03;6.20;92.20
54202;DHT22;40108;53.152;5.844;2023-03-04T08:21:29;6.20;91.80
54202;DHT22;40108;53.152;5.844;2023-03-04T08:23:57;6.20;91.40
54202;DHT22;40108;53.152;5.844;2023-03-04T08:26:30;6.20;91.10
54202;DHT22;40108;53.152;5.844;2023-03-04T08:28:56;6.30;90.90
54202;DHT22;40108;53.152;5.844;2023-03-04T08:31:22;6.20;90.20
54202;DHT22;40108;53.152;5.844;2023-03-04T08:33:48;6.30;89.80
54202;DHT22;40108;53.152;5.844;2023-03-04T08:36:15;6.30;89.70
54202;DHT22;40108;53.152;5.844;2023-03-04T08:38:42;6.30;89.60
54202;DHT22;40108;53.152;5.844;2023-03-04T08:41:07;6.40;89.70
54202;DHT22;40108;53.152;5.844;2023-03-04T08:43:33;6.30;89.80
54202;DHT22;40108;53.152;5.844;2023-03-04T08:45:59;6.30;89.90
54202;DHT22;40108;53.152;5.844;2023-03-04T08:48:25;6.20;90.10
54202;DHT22;40108;53.152;5.844;2023-03-04T08:50:51;6.30;90.30
54202;DHT22;40108;53.152;5.844;2023-03-04T08:53:18;6.30;90.20
54202;DHT22;40108;53.152;5.844;2023-03-04T08:55:45;6.40;90.10
54202;DHT22;40108;53.152;5.844;2023-03-04T08:58:11;6.40;89.90
54202;DHT22;40108;53.152;5.844;2023-03-04T09:00:39;6.50;89.80
54202;DHT22;40108;53.152;5.844;2023-03-04T09:03:05;6.40;89.20
54202;DHT22;40108;53.152;5.844;2023-03-04T09:05:31;6.50;89.30
54202;DHT22;40108;53.152;5.844;2023-03-04T09:07:57;6.40;89.10
54202;DHT22;40108;53.152;5.844;2023-03-04T09:10:23;6.40;89.30
54202;DHT22;40108;53.152;5.844;2023-03-04T09:12:49;6.40;89.30
54202;DHT22;40108;53.152;5.844;2023-03-04T09:15:16;6.40;89.20
54202;DHT22;40108;53.152;5.844;2023-03-04T09:17:42;6.40;89.20
54202;DHT22;40108;53.152;5.844;2023-03-04T09:20:09;6.40;89.30
54202;DHT22;40108;53.152;5.844;2023-03-04T09:22:39;6.50;89.30
54202;DHT22;40108;53.152;5.844;2023-03-04T09:25:06;6.50;89.20
54202;DHT22;40108;53.152;5.844;2023-03-04T09:27:32;6.50;89.20
54202;DHT22;40108;53.152;5.844;2023-03-04T09:29:57;6.60;89.10
54202;DHT22;40108;53.152;5.844;2023-03-04T09:32:23;6.60;89.10
54202;DHT22;40108;53.152;5.844;2023-03-04T09:34:49;6.60;88.70
54202;DHT22;40108;53.152;5.844;2023-03-04T09:37:15;6.60;88.10
54202;DHT22;40108;53.152;5.844;2023-03-04T09:39:40;6.70;87.50
54202;DHT22;40108;53.152;5.844;2023-03-04T09:42:17;6.70;87.30
54202;DHT22;40108;53.152;5.844;2023-03-04T09:44:47;6.60;86.90
54202;DHT22;40108;53.152;5.844;2023-03-04T09:47:15;6.60;86.00
54202;DHT22;40108;53.152;5.844;2023-03-04T09:49:50;6.60;84.70
54202;DHT22;40108;53.152;5.844;2023-03-04T09:55:20;6.70;84.80
54202;DHT22;40108;53.152;5.844;2023-03-04T10:00:55;6.70;84.10
54202;DHT22;40108;53.152;5.844;2023-03-04T10:03:26;6.70;82.60
54202;DHT22;40108;53.152;5.844;2023-03-04T10:06:01;6.70;82.90
54202;DHT22;40108;53.152;5.844;2023-03-04T10:11:02;6.70;81.10
54202;DHT22;40108;53.152;5.844;2023-03-04T10:13:39;6.70;81.90
54202;DHT22;40108;53.152;5.844;2023-03-04T10:16:11;6.70;82.50
54202;DHT22;40108;53.152;5.844;2023-03-04T10:18:57;6.70;83.20
54202;DHT22;40108;53.152;5.844;2023-03-04T10:21:32;6.70;83.70
54202;DHT22;40108;53.152;5.844;2023-03-04T10:24:14;6.60;84.50
54202;DHT22;40108;53.152;5.844;2023-03-04T10:26:45;6.70;84.70
54202;DHT22;40108;53.152;5.844;2023-03-04T10:29:20;6.70;84.50
54202;DHT22;40108;53.152;5.844;2023-03-04T10:31:47;6.70;84.80
54202;DHT22;40108;53.152;5.844;2023-03-04T10:34:15;6.80;84.50
54202;DHT22;40108;53.152;5.844;2023-03-04T10:44:50;7.70;80.90
54202;DHT22;40108;53.152;5.844;2023-03-04T10:47:16;7.70;80.90
54202;DHT22;40108;53.152;5.844;2023-03-04T10:49:56;7.70;80.70
54202;DHT22;40108;53.152;5.844;2023-03-04T10:52:29;7.70;80.50
54202;DHT22;40108;53.152;5.844;2023-03-04T10:54:58;7.70;80.70
54202;DHT22;40108;53.152;5.844;2023-03-04T10:57:37;7.60;80.00
54202;DHT22;40108;53.152;5.844;2023-03-04T11:02:48;7.80;80.00
54202;DHT22;40108;53.152;5.844;2023-03-04T11:05:18;7.80;78.90
54202;DHT22;40108;53.152;5.844;2023-03-04T11:07:59;7.70;78.20
54202;DHT22;40108;53.152;5.844;2023-03-04T11:10:30;7.70;78.20
54202;DHT22;40108;53.152;5.844;2023-03-04T11:13:01;7.70;79.10
54202;DHT22;40108;53.152;5.844;2023-03-04T11:15:29;7.60;78.70
54202;DHT22;40108;53.152;5.844;2023-03-04T11:18:03;7.50;78.50
54202;DHT22;40108;53.152;5.844;2023-03-04T11:20:44;7.40;78.50
54202;DHT22;40108;53.152;5.844;2023-03-04T11:23:18;7.30;79.10
54202;DHT22;40108;53.152;5.844;2023-03-04T11:26:11;7.20;79.50
54202;DHT22;40108;53.152;5.844;2023-03-04T11:29:03;7.20;79.00
54202;DHT22;40108;53.152;5.844;2023-03-04T11:31:41;7.30;79.50
54202;DHT22;40108;53.152;5.844;2023-03-04T11:37:28;7.40;78.30
54202;DHT22;40108;53.152;5.844;2023-03-04T11:39:58;7.70;79.80
54202;DHT22;40108;53.152;5.844;2023-03-04T11:42:46;8.30;78.20
54202;DHT22;40108;53.152;5.844;2023-03-04T11:45:16;8.20;76.80
54202;DHT22;40108;53.152;5.844;2023-03-04T11:50:22;7.80;76.20
54202;DHT22;40108;53.152;5.844;2023-03-04T11:55:38;7.70;76.20
54202;DHT22;40108;53.152;5.844;2023-03-04T12:01:13;8.10;76.80
54202;DHT22;40108;53.152;5.844;2023-03-04T12:15:36;8.00;73.30
54202;DHT22;40108;53.152;5.844;2023-03-04T12:18:15;7.90;73.80
54202;DHT22;40108;53.152;5.844;2023-03-04T12:21:13;7.90;74.20
54202;DHT22;40108;53.152;5.844;2023-03-04T12:28:56;7.40;72.90
54202;DHT22;40108;53.152;5.844;2023-03-04T12:48:16;7.40;71.90
54202;DHT22;40108;53.152;5.844;2023-03-04T12:56:44;7.80;70.20
54202;DHT22;40108;53.152;5.844;2023-03-04T12:59:19;7.80;69.80
54202;DHT22;40108;53.152;5.844;2023-03-04T13:01:55;7.70;71.00
54202;DHT22;40108;53.152;5.844;2023-03-04T13:10:17;7.70;73.70
54202;DHT22;40108;53.152;5.844;2023-03-04T13:12:53;7.70;71.00
54202;DHT22;40108;53.152;5.844;2023-03-04T13:18:02;7.70;70.20
54202;DHT22;40108;53.152;5.844;2023-03-04T13:38:24;7.20;78.60
54202;DHT22;40108;53.152;5.844;2023-03-04T13:41:21;7.10;79.50
54202;DHT22;40108;53.152;5.844;2023-03-04T13:56:40;6.90;78.10
54202;DHT22;40108;53.152;5.844;2023-03-04T14:02:16;7.00;78.40
54202;DHT22;40108;53.152;5.844;2023-03-04T14:07:30;7.10;77.70
54202;DHT22;40108;53.152;5.844;2023-03-04T14:10:22;7.10;76.90
54202;DHT22;40108;53.152;5.844;2023-03-04T14:12:52;7.10;77.00
54202;DHT22;40108;53.152;5.844;2023-03-04T14:15:29;7.20;76.90
54202;DHT22;40108;53.152;5.844;2023-03-04T14:18:01;7.10;77.10
54202;DHT22;40108;53.152;5.844;2023-03-04T14:22:55;7.10;78.00
54202;DHT22;40108;53.152;5.844;2023-03-04T14:25:29;7.00;78.10
54202;DHT22;40108;53.152;5.844;2023-03-04T14:28:10;6.90;77.50
54202;DHT22;40108;53.152;5.844;2023-03-04T14:30:36;6.90;77.00
54202;DHT22;40108;53.152;5.844;2023-03-04T14:33:06;6.90;77.50
54202;DHT22;40108;53.152;5.844;2023-03-04T14:35:33;6.90;77.20
54202;DHT22;40108;53.152;5.844;2023-03-04T14:38:02;6.90;76.80
54202;DHT22;40108;53.152;5.844;2023-03-04T14:40:39;6.90;76.50
54202;DHT22;40108;53.152;5.844;2023-03-04T14:43:13;6.90;76.10
54202;DHT22;40108;53.152;5.844;2023-03-04T14:45:41;6.90;76.50
54202;DHT22;40108;53.152;5.844;2023-03-04T14:48:10;6.90;77.10
54202;DHT22;40108;53.152;5.844;2023-03-04T14:50:52;6.90;77.40
54202;DHT22;40108;53.152;5.844;2023-03-04T14:53:21;6.90;78.00
54202;DHT22;40108;53.152;5.844;2023-03-04T14:56:07;6.90;77.90
54202;DHT22;40108;53.152;5.844;2023-03-04T14:58:38;6.90;78.10
54202;DHT22;40108;53.152;5.844;2023-03-04T15:01:14;6.90;78.60
54202;DHT22;40108;53.152;5.844;2023-03-04T15:03:43;6.80;79.10
54202;DHT22;40108;53.152;5.844;2023-03-04T15:06:24;6.80;79.40
54202;DHT22;40108;53.152;5.844;2023-03-04T15:09:06;6.70;79.50
54202;DHT22;40108;53.152;5.844;2023-03-04T15:11:46;6.60;79.70
54202;DHT22;40108;53.152;5.844;2023-03-04T15:14:44;6.50;79.50
54202;DHT22;40108;53.152;5.844;2023-03-04T15:25:16;6.10;80.00
54202;DHT22;40108;53.152;5.844;2023-03-04T15:27:44;6.00;80.80
54202;DHT22;40108;53.152;5.844;2023-03-04T15:30:37;5.90;81.70
54202;DHT22;40108;53.152;5.844;2023-03-04T15:33:05;5.80;81.60
54202;DHT22;40108;53.152;5.844;2023-03-04T15:35:34;5.80;81.60
54202;DHT22;40108;53.152;5.844;2023-03-04T15:38:01;5.70;81.90
54202;DHT22;40108;53.152;5.844;2023-03-04T15:40:28;5.80;82.40
54202;DHT22;40108;53.152;5.844;2023-03-04T15:42:56;5.80;82.70
54202;DHT22;40108;53.152;5.844;2023-03-04T15:45:31;5.80;82.80
54202;DHT22;40108;53.152;5.844;2023-03-04T15:48:00;5.80;82.90
54202;DHT22;40108;53.152;5.844;2023-03-04T15:50:29;5.90;82.80
54202;DHT22;40108;53.152;5.844;2023-03-04T15:53:00;5.90;82.80
54202;DHT22;40108;53.152;5.844;2023-03-04T15:55:28;5.90;82.90
54202;DHT22;40108;53.152;5.844;2023-03-04T15:57:56;6.00;82.70
54202;DHT22;40108;53.152;5.844;2023-03-04T16:00:23;6.10;82.30
54202;DHT22;40108;53.152;5.844;2023-03-04T16:02:49;6.10;81.30
54202;DHT22;40108;53.152;5.844;2023-03-04T16:05:15;6.20;81.30
54202;DHT22;40108;53.152;5.844;2023-03-04T16:07:46;6.20;81.00
54202;DHT22;40108;53.152;5.844;2023-03-04T16:10:26;6.20;80.90
54202;DHT22;40108;53.152;5.844;2023-03-04T16:12:53;6.10;79.70
54202;DHT22;40108;53.152;5.844;2023-03-04T16:15:21;6.00;80.30
54202;DHT22;40108;53.152;5.844;2023-03-04T16:17:47;5.80;81.00
54202;DHT22;40108;53.152;5.844;2023-03-04T16:20:17;5.70;81.70
54202;DHT22;40108;53.152;5.844;2023-03-04T16:22:46;5.60;82.10
54202;DHT22;40108;53.152;5.844;2023-03-04T16:25:14;5.60;82.60
54202;DHT22;40108;53.152;5.844;2023-03-04T16:27:40;5.50;82.70
54202;DHT22;40108;53.152;5.844;2023-03-04T16:30:19;5.50;82.60
54202;DHT22;40108;53.152;5.844;2023-03-04T16:32:45;5.50;82.40
54202;DHT22;40108;53.152;5.844;2023-03-04T16:35:11;5.50;82.50
54202;DHT22;40108;53.152;5.844;2023-03-04T16:37:38;5.50;82.20
54202;DHT22;40108;53.152;5.844;2023-03-04T16:40:06;5.60;82.40
54202;DHT22;40108;53.152;5.844;2023-03-04T16:42:33;5.50;82.60
54202;DHT22;40108;53.152;5.844;2023-03-04T16:44:59;5.50;83.20
54202;DHT22;40108;53.152;5.844;2023-03-04T16:47:25;5.30;83.80
54202;DHT22;40108;53.152;5.844;2023-03-04T16:49:52;5.20;84.10
54202;DHT22;40108;53.152;5.844;2023-03-04T16:52:30;5.20;84.70
54202;DHT22;40108;53.152;5.844;2023-03-04T16:54:57;5.20;85.10
54202;DHT22;40108;53.152;5.844;2023-03-04T16:57:23;5.10;85.30
54202;DHT22;40108;53.152;5.844;2023-03-04T16:59:49;5.10;85.50
54202;DHT22;40108;53.152;5.844;2023-03-04T17:02:20;5.00;85.70
54202;DHT22;40108;53.152;5.844;2023-03-04T17:04:48;5.10;86.00
54202;DHT22;40108;53.152;5.844;2023-03-04T17:07:14;5.00;86.40
54202;DHT22;40108;53.152;5.844;2023-03-04T17:09:41;5.00;86.50
54202;DHT22;40108;53.152;5.844;2023-03-04T17:12:09;5.00;86.20
54202;DHT22;40108;53.152;5.844;2023-03-04T17:14:35;4.90;86.30
54202;DHT22;40108;53.152;5.844;2023-03-04T17:17:03;4.90;86.50
54202;DHT22;40108;53.152;5.844;2023-03-04T17:19:29;4.90;86.50
54202;DHT22;40108;53.152;5.844;2023-03-04T17:21:57;4.80;86.40
54202;DHT22;40108;53.152;5.844;2023-03-04T17:24:23;4.80;86.70
54202;DHT22;40108;53.152;5.844;2023-03-04T17:26:49;4.80;86.50
54202;DHT22;40108;53.152;5.844;2023-03-04T17:29:15;4.80;86.60
54202;DHT22;40108;53.152;5.844;2023-03-04T17:31:40;4.80;86.50
54202;DHT22;40108;53.152;5.844;2023-03-04T17:34:06;4.80;86.50
54202;DHT22;40108;53.152;5.844;2023-03-04T17:36:32;4.80;86.80
54202;DHT22;40108;53.152;5.844;2023-03-04T17:38:59;4.80;86.80
54202;DHT22;40108;53.152;5.844;2023-03-04T17:41:25;4.80;87.10
54202;DHT22;40108;53.152;5.844;2023-03-04T17:43:52;4.80;87.20
54202;DHT22;40108;53.152;5.844;2023-03-04T17:46:24;4.80;87.50
54202;DHT22;40108;53.152;5.844;2023-03-04T17:48:52;4.80;87.80
54202;DHT22;40108;53.152;5.844;2023-03-04T17:51:32;4.80;87.80
54202;DHT22;40108;53.152;5.844;2023-03-04T17:53:58;4.80;87.80
54202;DHT22;40108;53.152;5.844;2023-03-04T17:56:28;4.80;87.40
54202;DHT22;40108;53.152;5.844;2023-03-04T17:58:56;4.80;87.40
54202;DHT22;40108;53.152;5.844;2023-03-04T18:01:22;4.80;87.30